createdAt,value
2022-09-24T00:02:59.536Z,3.77
2022-09-24T00:08:04.965Z,3.63
2022-09-24T00:13:18.795Z,3.70
2022-09-24T00:18:22.516Z,3.63
2022-09-24T00:23:26.492Z,3.00
2022-09-24T00:28:35.013Z,3.60
2022-09-24T00:33:41.330Z,3.53
2022-09-24T00:38:47.602Z,3.33
2022-09-24T00:43:53.395Z,3.60
2022-09-24T00:49:15.032Z,3.10
2022-09-24T00:54:23.506Z,3.10
2022-09-24T00:59:31.110Z,3.23
2022-09-24T01:04:39.649Z,3.17
2022-09-24T01:09:48.333Z,3.80
2022-09-24T01:15:04.531Z,3.60
2022-09-24T01:20:41.406Z,3.30
2022-09-24T01:26:02.835Z,3.13
2022-09-24T01:31:17.034Z,3.67
2022-09-24T01:36:26.050Z,3.30
2022-09-24T01:41:34.046Z,3.33
2022-09-24T01:46:42.417Z,3.77
2022-09-24T01:51:55.251Z,3.97
2022-09-24T01:57:10.930Z,3.93
2022-09-24T02:02:23.355Z,3.53
2022-09-24T02:07:31.451Z,3.60
2022-09-24T02:12:43.063Z,4.00
2022-09-24T02:17:57.677Z,3.37
2022-09-24T02:23:05.938Z,3.70
2022-09-24T02:28:13.821Z,3.77
2022-09-24T02:33:38.943Z,3.60
2022-09-24T02:38:43.564Z,4.20
2022-09-24T02:43:47.985Z,3.57
2022-09-24T02:48:59.357Z,3.60
2022-09-24T02:54:06.127Z,3.70
2022-09-24T02:59:17.127Z,3.70
2022-09-24T03:04:22.376Z,4.07
2022-09-24T03:09:26.327Z,3.30
2022-09-24T03:14:30.039Z,3.53
2022-09-24T03:19:54.508Z,3.13
2022-09-24T03:30:52.993Z,3.60
2022-09-24T03:36:18.518Z,3.60
2022-09-24T03:41:25.271Z,3.67
2022-09-24T03:46:31.440Z,3.47
2022-09-24T03:51:36.818Z,3.90
2022-09-24T03:56:40.645Z,4.00
2022-09-24T04:01:47.440Z,4.37
2022-09-24T04:06:53.085Z,4.00
2022-09-24T04:11:57.302Z,3.60
2022-09-24T04:17:06.335Z,3.77
2022-09-24T04:22:11.608Z,3.30
2022-09-24T04:27:20.761Z,3.43
2022-09-24T04:32:38.984Z,3.47
2022-09-24T04:37:47.380Z,10.40
2022-09-24T04:42:56.685Z,18.73
2022-09-24T04:48:00.462Z,5.60
2022-09-24T04:53:05.580Z,10.07
2022-09-24T04:58:09.619Z,6.17
2022-09-24T05:03:13.853Z,4.00
2022-09-24T05:08:21.140Z,3.97
2022-09-24T05:13:24.950Z,4.03
2022-09-24T05:18:28.840Z,3.97
2022-09-24T05:23:36.465Z,4.37
2022-09-24T05:28:40.560Z,4.70
2022-09-24T05:33:44.220Z,3.97
2022-09-24T05:38:49.195Z,3.63
2022-09-24T05:43:52.883Z,3.97
2022-09-24T05:48:56.788Z,3.87
2022-09-24T05:54:01.727Z,3.87
2022-09-24T05:59:05.418Z,3.50
2022-09-24T06:04:09.492Z,3.53
2022-09-24T06:09:14.968Z,3.47
2022-09-24T06:14:19.018Z,3.80
2022-09-24T06:19:33.520Z,3.60
2022-09-24T06:24:40.115Z,8.03
2022-09-24T06:29:53.489Z,4.33
2022-09-24T06:34:59.906Z,4.03
2022-09-24T06:40:08.266Z,4.50
2022-09-24T06:45:14.577Z,4.30
2022-09-24T06:50:21.642Z,4.60
2022-09-24T06:55:27.504Z,4.73
2022-09-24T07:00:37.741Z,4.13
2022-09-24T07:06:08.905Z,4.50
2022-09-24T07:11:19.902Z,5.03
2022-09-24T07:16:43.757Z,5.00
2022-09-24T07:21:47.777Z,4.67
2022-09-24T07:26:56.479Z,4.83
2022-09-24T07:32:17.285Z,5.03
2022-09-24T07:37:21.136Z,4.53
2022-09-24T07:42:26.909Z,4.23
2022-09-24T07:47:30.610Z,4.27
2022-09-24T07:52:34.255Z,4.03
2022-09-24T07:57:39.662Z,4.07
2022-09-24T08:02:43.480Z,4.00
2022-09-24T08:07:53.879Z,4.23
2022-09-24T08:13:14.134Z,4.40
2022-09-24T08:18:17.619Z,4.00
2022-09-24T08:23:21.770Z,3.93
2022-09-24T08:28:26.823Z,3.53
2022-09-24T08:33:31.717Z,4.10
2022-09-24T08:38:35.501Z,3.63
2022-09-24T08:43:48.717Z,4.10
2022-09-24T08:48:54.807Z,3.80
2022-09-24T08:54:04.478Z,3.90
2022-09-24T08:59:20.160Z,4.27
2022-09-24T09:04:28.653Z,4.27
2022-09-24T09:09:42.863Z,4.37
2022-09-24T09:14:57.027Z,4.03
2022-09-24T09:20:05.307Z,4.30
2022-09-24T09:25:20.034Z,3.87
2022-09-24T09:30:25.476Z,3.60
2022-09-24T09:35:38.503Z,3.97
2022-09-24T09:40:47.503Z,3.87
2022-09-24T09:46:02.841Z,3.33
2022-09-24T09:51:08.166Z,4.23
2022-09-24T09:56:13.412Z,4.43
2022-09-24T10:01:19.877Z,3.90
2022-09-24T10:06:26.406Z,3.77
2022-09-24T10:11:29.990Z,3.40
2022-09-24T10:16:39.643Z,3.23
2022-09-24T10:21:43.329Z,2.93
2022-09-24T10:26:48.526Z,3.90
2022-09-24T10:31:53.602Z,2.67
2022-09-24T10:37:01.229Z,2.40
2022-09-24T10:42:05.762Z,2.30
2022-09-24T10:47:21.655Z,2.50
2022-09-24T10:52:41.943Z,2.50
2022-09-24T10:57:59.566Z,2.80
2022-09-24T11:03:24.663Z,2.40
2022-09-24T11:08:39.590Z,2.30
2022-09-24T11:13:51.585Z,2.50
2022-09-24T11:19:02.623Z,2.60
2022-09-24T11:24:24.835Z,2.43
2022-09-24T11:29:43.046Z,2.53
2022-09-24T11:35:09.348Z,2.70
2022-09-24T11:40:26.136Z,2.07
2022-09-24T11:45:49.595Z,2.60
2022-09-24T11:51:03.988Z,2.30
2022-09-24T11:56:15.643Z,2.80
2022-09-24T12:01:23.426Z,2.07
2022-09-24T12:06:33.638Z,2.20
2022-09-24T12:11:41.831Z,2.10
2022-09-24T12:16:49.028Z,2.27
2022-09-24T12:22:07.158Z,3.00
2022-09-24T12:27:16.069Z,3.00
2022-09-24T12:32:42.704Z,3.23
2022-09-24T12:37:49.232Z,3.50
2022-09-24T12:48:18.619Z,3.67
2022-09-24T12:53:28.399Z,3.73
2022-09-24T12:58:38.397Z,3.20
2022-09-24T13:03:47.207Z,3.50
2022-09-24T13:08:53.578Z,4.07
2022-09-24T13:19:42.130Z,3.63
2022-09-24T13:24:55.785Z,3.47
2022-09-24T13:30:11.386Z,3.37
2022-09-24T13:35:31.848Z,3.10
2022-09-24T13:40:43.001Z,3.00
2022-09-24T13:45:51.389Z,3.13
2022-09-24T13:50:58.179Z,2.87
2022-09-24T13:56:05.418Z,2.80
2022-09-24T14:01:15.135Z,2.50
2022-09-24T14:55:39.854Z,2.60
2022-09-24T15:00:50.405Z,3.07
2022-09-24T15:05:54.899Z,2.77
2022-09-24T15:11:02.823Z,2.40
2022-09-24T15:16:25.265Z,2.70
2022-09-24T15:21:30.362Z,2.57
2022-09-24T15:26:38.189Z,2.53
2022-09-24T15:31:42.324Z,2.53
2022-09-24T15:36:47.543Z,2.70
2022-09-24T15:41:52.693Z,2.70
2022-09-24T15:46:56.486Z,2.60
2022-09-24T15:52:04.544Z,2.83
2022-09-24T15:57:12.924Z,3.13
2022-09-24T16:02:24.439Z,2.83
2022-09-24T16:07:28.296Z,2.60
2022-09-24T16:12:34.611Z,2.80
2022-09-24T16:17:46.443Z,2.90
2022-09-24T16:22:55.265Z,2.50
2022-09-24T16:28:17.038Z,2.60
2022-09-24T16:33:33.080Z,2.30
2022-09-24T16:38:44.464Z,2.80
2022-09-24T16:43:52.153Z,3.27
2022-09-24T16:49:02.818Z,2.80
2022-09-24T16:54:14.182Z,2.53
2022-09-24T16:59:23.462Z,2.70
2022-09-24T17:04:30.260Z,2.40
2022-09-24T17:14:53.415Z,2.80
2022-09-24T17:19:56.915Z,2.70
2022-09-24T17:25:00.578Z,2.50
2022-09-24T17:30:07.652Z,2.40
2022-09-24T17:35:11.633Z,2.60
2022-09-24T17:40:23.698Z,2.83
2022-09-24T17:45:32.471Z,2.80
2022-09-24T17:50:37.489Z,3.37
2022-09-24T17:55:49.677Z,3.00
2022-09-24T18:00:55.407Z,3.10
2022-09-24T18:06:04.543Z,3.20
2022-09-24T18:11:10.318Z,3.87
2022-09-24T18:16:16.979Z,3.90
2022-09-24T18:21:23.068Z,3.70
2022-09-24T18:26:32.823Z,3.03
2022-09-24T18:31:39.373Z,3.70
2022-09-24T18:36:45.567Z,2.67
2022-09-24T18:41:58.777Z,3.37
2022-09-24T18:47:08.461Z,3.13
2022-09-24T18:52:17.273Z,4.27
2022-09-24T18:57:25.150Z,3.10
2022-09-24T19:02:30.495Z,3.50
2022-09-24T19:07:36.957Z,3.10
2022-09-24T19:12:43.656Z,2.90
2022-09-24T19:17:49.697Z,3.10
2022-09-24T19:23:00.412Z,3.50
2022-09-24T19:28:05.810Z,3.23
2022-09-24T19:33:13.747Z,3.57
2022-09-24T19:38:17.569Z,3.80
2022-09-24T19:43:21.387Z,3.37
2022-09-24T19:48:26.879Z,3.10
2022-09-24T19:53:31.732Z,3.00
2022-09-24T19:58:35.431Z,3.23
2022-09-24T20:03:41.510Z,3.23
2022-09-24T20:08:45.249Z,3.40
2022-09-24T20:13:49.260Z,3.30
2022-09-24T20:18:58.080Z,3.37
2022-09-24T20:24:03.991Z,2.93
2022-09-24T20:29:09.940Z,3.07
2022-09-24T20:34:15.090Z,2.77
2022-09-24T20:39:19.139Z,3.33
2022-09-24T20:44:25.366Z,6.30
2022-09-24T20:49:30.462Z,6.80
2022-09-24T20:54:34.877Z,4.20
2022-09-24T20:59:38.384Z,4.40
2022-09-24T21:04:43.619Z,4.23
2022-09-24T21:09:47.493Z,4.13
2022-09-24T21:14:52.497Z,3.70
2022-09-24T21:19:57.811Z,3.67
2022-09-24T21:25:01.499Z,3.23
2022-09-24T21:30:05.562Z,2.87
2022-09-24T21:35:11.121Z,2.77
2022-09-24T21:40:15.133Z,2.77
2022-09-24T21:45:18.765Z,2.97
2022-09-24T21:50:23.695Z,3.20
2022-09-24T21:55:27.173Z,3.70
2022-09-24T22:00:30.635Z,4.43
2022-09-24T22:05:43.175Z,3.97
2022-09-24T22:10:46.789Z,3.77
2022-09-24T22:15:51.737Z,3.80
2022-09-24T22:20:57.742Z,4.03
2022-09-24T22:26:01.612Z,4.00
2022-09-24T22:36:51.834Z,4.43
2022-09-24T22:41:55.306Z,4.53
2022-09-24T22:46:58.818Z,4.53
2022-09-24T22:52:03.942Z,5.03
2022-09-24T22:57:07.511Z,5.30
2022-09-24T23:02:13.340Z,6.10
2022-09-24T23:07:18.677Z,5.87
2022-09-24T23:12:22.198Z,6.20
2022-09-24T23:17:25.766Z,6.20
2022-09-24T23:22:32.133Z,6.87
2022-09-24T23:27:35.656Z,6.70
2022-09-24T23:32:39.190Z,5.87
2022-09-24T23:37:44.097Z,6.40
2022-09-24T23:42:47.984Z,6.63
2022-09-24T23:47:51.390Z,7.70
2022-09-24T23:52:56.423Z,7.07
2022-09-24T23:57:59.990Z,6.83
